Time;durP1;ratioP1;P1;durP2;ratioP2;P2;SDS_P1;SDS_P2;PMS_P1;PMS_P2;Temp;Humidity;BMP_temperature;BMP_pressure;BME280_temperature;BME280_humidity;BME280_pressure;Samples;Min_cycle;Max_cycle;Signal;HPM_P1;HPM_P2
2023/10/20 00:03:46;;;;;;;38.72;24.00;;;;;;;12.46;nan;98117.81;10327374;28;20533;-75
2023/10/20 00:08:47;;;;;;;36.70;22.52;;;;;;;12.48;nan;98108.19;10361506;28;20121;-76
2023/10/20 00:13:47;;;;;;;47.22;27.88;;;;;;;12.51;nan;98106.44;10360943;28;20459;-75
2023/10/20 00:18:48;;;;;;;42.47;25.50;;;;;;;12.52;nan;98110.81;10357115;28;20145;-75
2023/10/20 00:23:48;;;;;;;46.00;28.85;;;;;;;12.50;nan;98095.06;10358667;28;20054;-75
2023/10/20 00:28:49;;;;;;;44.30;28.63;;;;;;;12.48;nan;98088.94;10364719;28;20069;-75
2023/10/20 00:33:50;;;;;;;55.03;28.92;;;;;;;12.48;nan;98066.22;10359118;28;20169;-75
2023/10/20 00:38:50;;;;;;;55.72;29.70;;;;;;;12.43;nan;98054.88;10359029;28;20102;-75
2023/10/20 00:43:51;;;;;;;57.28;33.13;;;;;;;12.42;nan;98052.25;10356307;28;20129;-74
2023/10/20 00:48:51;;;;;;;53.28;32.95;;;;;;;12.41;nan;98042.66;10358784;28;20125;-75
2023/10/20 00:53:52;;;;;;;60.97;30.98;;;;;;;12.44;nan;98027.78;10328997;28;20501;-75
2023/10/20 00:58:52;;;;;;;52.08;30.63;;;;;;;12.40;nan;98018.19;10358382;28;20123;-74
2023/10/20 01:03:53;;;;;;;59.08;33.55;;;;;;;12.34;nan;98012.97;10354146;28;20125;-75
2023/10/20 01:08:56;;;;;;;54.50;33.25;;;;;;;12.24;nan;97999.03;10358471;28;20117;-76
2023/10/20 01:13:57;;;;;;;52.70;29.00;;;;;;;12.20;nan;97989.44;10359171;28;20513;-76
2023/10/20 01:19:00;;;;;;;61.92;33.72;;;;;;;12.17;nan;97974.59;10356084;28;20127;-75
2023/10/20 01:24:02;;;;;;;61.60;32.33;;;;;;;12.08;nan;97976.38;10358741;28;20096;-75
2023/10/20 01:29:05;;;;;;;62.67;33.05;;;;;;;12.13;nan;97967.63;10355458;28;20489;-75
2023/10/20 01:34:06;;;;;;;59.47;34.45;;;;;;;12.23;nan;97960.56;10352469;28;20402;-75
2023/10/20 01:39:08;;;;;;;63.22;36.00;;;;;;;12.15;nan;97963.25;10353945;28;20116;-76
2023/10/20 01:44:13;;;;;;;74.45;37.42;;;;;;;12.20;nan;97937.00;10339881;28;20053;-76
2023/10/20 01:49:13;;;;;;;52.63;29.23;;;;;;;12.34;nan;97935.16;10355863;28;20038;-75
2023/10/20 01:54:14;;;;;;;54.65;28.48;;;;;;;12.34;nan;97937.78;10357860;28;20121;-75
2023/10/20 01:59:15;;;;;;;46.53;29.33;;;;;;;12.42;nan;97916.75;10356050;28;20066;-75
2023/10/20 02:04:15;;;;;;;61.83;35.63;;;;;;;12.46;nan;97914.97;10358892;28;20095;-75
2023/10/20 02:09:16;;;;;;;60.75;34.20;;;;;;;12.46;nan;97894.88;10358815;28;20049;-75
2023/10/20 02:14:16;;;;;;;51.97;28.42;;;;;;;12.46;nan;97880.88;10356462;28;20054;-75
2023/10/20 02:19:17;;;;;;;50.80;29.17;;;;;;;12.48;nan;97871.22;10353174;28;20125;-75
2023/10/20 02:24:17;;;;;;;55.50;30.30;;;;;;;12.46;nan;97860.78;10354709;28;20503;-75
2023/10/20 02:29:18;;;;;;;50.42;30.08;;;;;;;12.51;nan;97865.09;10337025;28;20131;-75
2023/10/20 02:34:19;;;;;;;53.35;31.20;;;;;;;12.48;nan;97851.13;10354433;28;20069;-75
2023/10/20 02:39:20;;;;;;;58.83;31.58;;;;;;;12.56;nan;97839.72;10357597;28;20482;-76
2023/10/20 02:44:21;;;;;;;53.90;31.27;;;;;;;12.55;nan;97830.09;10365072;28;20069;-76
2023/10/20 02:49:22;;;;;;;50.92;30.00;;;;;;;12.55;nan;97811.72;10362132;28;20038;-76
2023/10/20 02:54:22;;;;;;;46.83;29.65;;;;;;;12.50;nan;97797.78;10381041;28;20451;-75
2023/10/20 02:59:23;;;;;;;48.25;27.80;;;;;;;12.49;nan;97781.16;10363163;28;20041;-75
2023/10/20 03:04:23;;;;;;;52.67;31.67;;;;;;;12.53;nan;97748.78;10362665;28;20393;-75
2023/10/20 03:09:24;;;;;;;55.72;32.88;;;;;;;12.49;nan;97744.44;10342578;28;20128;-75
2023/10/20 03:14:24;;;;;;;49.65;29.33;;;;;;;12.55;nan;97752.25;10363281;28;20535;-75
2023/10/20 03:19:25;;;;;;;52.13;28.48;;;;;;;12.58;nan;97754.00;10364157;28;20180;-75
2023/10/20 03:24:26;;;;;;;49.60;29.42;;;;;;;12.59;nan;97737.38;10359346;28;20065;-76
2023/10/20 03:29:26;;;;;;;57.55;32.00;;;;;;;12.60;nan;97718.97;10360975;28;20136;-78
2023/10/20 03:34:26;;;;;;;54.38;31.73;;;;;;;12.62;nan;97713.72;10360211;28;20223;-75
2023/10/20 03:39:27;;;;;;;54.53;31.45;;;;;;;12.66;nan;97715.41;10358112;28;20532;-76
2023/10/20 03:44:28;;;;;;;54.55;31.55;;;;;;;12.67;nan;97705.78;10362792;28;20065;-76
2023/10/20 03:49:33;;;;;;;50.28;27.83;;;;;;;12.71;nan;97679.50;10363219;28;20387;-75
2023/10/20 03:54:34;;;;;;;43.67;26.17;;;;;;;12.70;nan;97672.53;10357600;28;20140;-76
2023/10/20 03:59:35;;;;;;;37.95;26.50;;;;;;;12.67;nan;97685.69;10356976;28;20046;-75
2023/10/20 04:04:35;;;;;;;44.97;25.67;;;;;;;12.69;nan;97683.00;10321170;28;20048;-76
2023/10/20 04:09:38;;;;;;;33.13;21.20;;;;;;;12.70;nan;97661.13;10361638;28;20113;-76
2023/10/20 04:14:38;;;;;;;34.45;19.75;;;;;;;12.74;nan;97649.72;10374054;28;20096;-75
2023/10/20 04:19:40;;;;;;;37.88;22.35;;;;;;;12.77;nan;97647.94;10394093;28;20108;-76
2023/10/20 04:24:41;;;;;;;29.67;19.57;;;;;;;12.84;nan;97626.88;10361570;28;20038;-76
2023/10/20 04:41:50;;;;;;;33.70;19.95;;;;;;;12.89;nan;97594.41;10342104;28;20038;-76
2023/10/20 04:51:12;;;;;;;30.02;18.08;;;;;;;12.86;nan;97541.97;10359271;28;20486;-76
2023/10/20 05:01:40;;;;;;;31.08;18.13;;;;;;;12.98;nan;97529.53;10360161;28;20062;-75
2023/10/20 05:06:43;;;;;;;23.10;16.88;;;;;;;13.02;nan;97503.22;10354950;28;20040;-76
2023/10/20 05:11:44;;;;;;;24.75;16.02;;;;;;;13.01;nan;97525.13;10359465;28;20100;-76
2023/10/20 05:16:44;;;;;;;23.50;14.60;;;;;;;13.00;nan;97506.75;10352407;28;20039;-76
2023/10/20 05:21:45;;;;;;;29.33;17.15;;;;;;;13.01;nan;97485.75;10337384;28;20045;-75
2023/10/20 05:26:46;;;;;;;25.90;17.15;;;;;;;13.05;nan;97487.44;10356353;28;20034;-75
2023/10/20 05:31:46;;;;;;;25.90;16.38;;;;;;;13.10;nan;97487.34;10322986;28;20080;-75
2023/10/20 05:36:47;;;;;;;20.20;15.82;;;;;;;13.19;nan;97502.09;10334731;28;20541;-75
2023/10/20 05:41:48;;;;;;;24.77;15.80;;;;;;;13.24;nan;97499.38;10367819;28;20502;-76
2023/10/20 05:46:49;;;;;;;24.25;15.15;;;;;;;13.26;nan;97498.47;10355168;28;20120;-75
2023/10/20 05:51:51;;;;;;;22.48;14.38;;;;;;;13.26;nan;97479.19;10354146;28;20121;-76
2023/10/20 05:56:52;;;;;;;25.83;15.05;;;;;;;13.26;nan;97466.06;10358497;28;20433;-75
2023/10/20 06:01:52;;;;;;;19.05;13.68;;;;;;;13.27;nan;97467.81;10355897;28;20034;-76
2023/10/20 06:06:53;;;;;;;23.60;15.60;;;;;;;13.22;nan;97454.78;10355869;28;20546;-75
2023/10/20 06:11:56;;;;;;;18.02;13.13;;;;;;;13.24;nan;97449.47;10357656;28;20041;-75
2023/10/20 06:16:56;;;;;;;25.38;14.30;;;;;;;13.17;nan;97478.47;10343335;28;20042;-74
2023/10/20 06:22:00;;;;;;;25.65;15.68;;;;;;;13.22;nan;97478.41;10355057;28;20085;-74
2023/10/20 06:27:03;;;;;;;23.30;14.93;;;;;;;13.27;nan;97452.03;10366698;28;20041;-74
2023/10/20 06:38:10;;;;;;;26.30;15.48;;;;;;;13.16;nan;97471.47;10353434;28;20054;-74
2023/10/20 06:42:52;;;;;;;21.60;15.40;;;;;;;13.16;nan;97479.34;10380572;28;20702;-74
2023/10/20 06:47:53;;;;;;;23.77;16.48;;;;;;;13.17;nan;97457.47;10363194;28;20156;-74
2023/10/20 06:52:53;;;;;;;27.27;19.05;;;;;;;13.12;nan;97461.06;10370460;28;20124;-74
2023/10/20 06:57:54;;;;;;;30.42;19.60;;;;;;;13.00;nan;97454.25;10346496;28;20550;-74
2023/10/20 07:02:54;;;;;;;32.90;20.52;;;;;;;12.89;nan;97443.97;10342788;28;20129;-75
2023/10/20 07:07:55;;;;;;;38.28;23.48;;;;;;;12.83;nan;97460.66;10358652;28;20514;-74
2023/10/20 07:12:56;;;;;;;33.60;21.70;;;;;;;12.82;nan;97451.03;10349931;28;20041;-74
2023/10/20 07:17:56;;;;;;;44.28;26.27;;;;;;;12.75;nan;97449.41;10356458;28;20873;-73
2023/10/20 07:22:57;;;;;;;41.70;25.92;;;;;;;12.74;nan;97460.78;10344315;28;20176;-73
2023/10/20 07:27:57;;;;;;;42.85;25.55;;;;;;;12.73;nan;97446.81;10356005;28;20049;-74
2023/10/20 07:32:58;;;;;;;39.45;24.60;;;;;;;12.72;nan;97446.84;10340721;28;20168;-74
2023/10/20 07:37:58;;;;;;;45.03;26.63;;;;;;;12.67;nan;97439.06;10343285;28;20069;-74
2023/10/20 07:42:59;;;;;;;42.38;26.13;;;;;;;12.70;nan;97441.63;10357297;28;20069;-74
2023/10/20 07:47:59;;;;;;;44.03;26.58;;;;;;;12.70;nan;97441.63;10355701;28;20578;-73
2023/10/20 07:53:07;;;;;;;43.00;29.00;;;;;;;12.66;nan;97436.44;10361529;28;20042;-73
2023/10/20 07:58:08;;;;;;;43.50;27.20;;;;;;;12.66;nan;97426.81;10343436;28;20043;-74
2023/10/20 08:03:12;;;;;;;38.55;24.52;;;;;;;12.70;nan;97431.13;10336991;28;20077;-73
2023/10/20 08:08:13;;;;;;;41.58;25.80;;;;;;;12.70;nan;97425.88;10359288;28;20124;-73
2023/10/20 08:13:13;;;;;;;30.73;20.75;;;;;;;12.69;nan;97426.78;10354448;28;20486;-73
2023/10/20 08:18:14;;;;;;;32.67;20.15;;;;;;;12.72;nan;97421.47;10359292;28;20117;-73
2023/10/20 08:23:14;;;;;;;25.73;16.35;;;;;;;12.68;nan;97435.53;10350910;28;20124;-74
2023/10/20 08:28:15;;;;;;;20.98;16.27;;;;;;;12.74;nan;97439.81;10356650;28;20157;-73
2023/10/20 08:33:15;;;;;;;21.70;15.55;;;;;;;12.74;nan;97438.06;10335424;28;20038;-74
2023/10/20 08:38:16;;;;;;;22.63;13.57;;;;;;;12.80;nan;97431.00;10362576;28;20065;-74
2023/10/20 08:43:16;;;;;;;14.30;10.52;;;;;;;12.81;nan;97435.34;10349860;28;20052;-75
2023/10/20 08:48:17;;;;;;;15.30;10.82;;;;;;;12.80;nan;97421.34;10332647;28;20042;-74
2023/10/20 08:53:18;;;;;;;14.38;10.07;;;;;;;12.83;nan;97426.53;10357617;28;20125;-74
2023/10/20 08:58:19;;;;;;;11.43;8.45;;;;;;;12.86;nan;97430.88;10338212;28;20034;-74
2023/10/20 09:03:20;;;;;;;12.45;9.18;;;;;;;12.89;nan;97433.47;10347778;28;20526;-74
2023/10/20 09:08:20;;;;;;;11.00;7.25;;;;;;;12.95;nan;97437.72;10345978;28;20042;-74
2023/10/20 09:13:23;;;;;;;14.70;8.63;;;;;;;12.93;nan;97422.88;10335975;28;20030;-74
2023/10/20 09:18:23;;;;;;;10.88;9.10;;;;;;;13.00;nan;97428.00;10368097;28;20041;-74
2023/10/20 09:23:24;;;;;;;11.63;8.93;;;;;;;13.04;nan;97425.31;10359498;28;20038;-74
2023/10/20 09:28:24;;;;;;;13.32;9.80;;;;;;;13.03;nan;97409.59;10357226;28;20124;-75
2023/10/20 09:33:25;;;;;;;13.65;10.15;;;;;;;13.11;nan;97414.72;10347495;28;20147;-74
2023/10/20 09:38:26;;;;;;;12.68;8.98;;;;;;;13.14;nan;97417.28;10345840;28;20034;-74
2023/10/20 09:43:29;;;;;;;14.30;8.33;;;;;;;13.10;nan;97429.59;10363616;28;20125;-74
2023/10/20 09:48:30;;;;;;;13.02;9.20;;;;;;;13.11;nan;97412.09;10354158;28;20048;-75
2023/10/20 09:53:30;;;;;;;14.02;10.00;;;;;;;13.19;nan;97418.91;10370146;28;20446;-73
2023/10/20 09:58:34;;;;;;;14.20;11.50;;;;;;;13.21;nan;97416.28;10377801;28;20038;-74
2023/10/20 10:03:37;;;;;;;15.55;11.80;;;;;;;13.26;nan;97419.69;10370612;28;20175;-74
2023/10/20 10:08:40;;;;;;;17.08;10.55;;;;;;;13.40;nan;97427.28;10352737;28;20374;-75
2023/10/20 10:13:40;;;;;;;;;;;;;;;13.44;nan;97418.50;10366214;28;20121;-75
2023/10/20 10:18:47;;;;;;;15.00;10.67;;;;;;;13.41;nan;97415.88;10356628;28;19922;-74
2023/10/20 10:24:06;;;;;;;15.15;10.55;;;;;;;13.55;nan;97409.53;10333248;28;20269;-74
2023/10/20 10:29:07;;;;;;;15.00;10.77;;;;;;;13.61;nan;97398.91;10356895;28;20072;-74
2023/10/20 10:34:09;;;;;;;14.00;10.40;;;;;;;13.82;nan;97391.47;10361557;28;20133;-74
2023/10/20 10:39:20;;;;;;;;;;;;;;;13.70;nan;97384.72;10341602;28;20549;-74
2023/10/20 10:44:22;;;;;;;13.57;9.45;;;;;;;13.54;nan;97371.03;10359663;28;19925;-74
2023/10/20 10:49:22;;;;;;;16.65;9.10;;;;;;;13.52;nan;97371.06;10347796;28;20041;-74
2023/10/20 10:54:24;;;;;;;10.40;8.27;;;;;;;13.42;nan;97362.50;10362928;28;20121;-74
2023/10/20 10:59:25;;;;;;;13.18;8.20;;;;;;;13.37;nan;97343.31;10387192;28;20038;-75
2023/10/20 11:04:26;;;;;;;12.20;8.70;;;;;;;13.29;nan;97346.09;10385042;28;20041;-75
2023/10/20 11:09:28;;;;;;;13.05;9.02;;;;;;;13.42;nan;97307.34;10362476;28;20439;-75
2023/10/20 11:14:29;;;;;;;15.38;10.38;;;;;;;13.45;nan;97314.31;10326160;28;20073;-74
2023/10/20 11:19:29;;;;;;;12.27;8.88;;;;;;;13.39;nan;97320.50;10366855;28;20125;-74
2023/10/20 11:24:36;;;;;;;13.27;9.60;;;;;;;13.30;nan;97312.81;10361407;28;20050;-74
2023/10/20 11:29:37;;;;;;;14.57;10.27;;;;;;;13.30;nan;97305.81;10360461;28;20121;-74
2023/10/20 11:34:41;;;;;;;14.20;9.20;;;;;;;13.31;nan;97286.53;10358835;28;20029;-74
2023/10/20 11:39:42;;;;;;;14.70;10.75;;;;;;;13.40;nan;97277.56;10356368;28;20072;-74
2023/10/20 11:44:42;;;;;;;14.55;10.20;;;;;;;13.39;nan;97261.88;10375291;28;20455;-74
2023/10/20 11:49:43;;;;;;;17.75;12.25;;;;;;;13.40;nan;97263.59;10356948;28;20132;-74
2023/10/20 11:54:45;;;;;;;16.02;13.82;;;;;;;13.48;nan;97274.84;10362230;28;20176;-74
2023/10/20 11:59:45;;;;;;;15.32;11.95;;;;;;;13.55;nan;97268.56;10361515;28;20383;-74
2023/10/20 12:04:46;;;;;;;19.05;14.23;;;;;;;13.44;nan;97255.63;10352165;28;20108;-74
2023/10/20 12:09:46;;;;;;;19.90;14.40;;;;;;;13.46;nan;97253.00;10362184;28;20125;-74
2023/10/20 12:14:47;;;;;;;15.02;11.82;;;;;;;13.39;nan;97254.84;10359332;28;20038;-74
2023/10/20 12:19:48;;;;;;;15.05;11.52;;;;;;;13.31;nan;97254.13;10357132;28;20441;-74
2023/10/20 12:24:50;;;;;;;17.63;13.47;;;;;;;13.31;nan;97255.03;10387685;28;20501;-74
2023/10/20 12:29:50;;;;;;;15.98;12.05;;;;;;;13.24;nan;97250.78;10330656;28;20486;-75
2023/10/20 12:34:51;;;;;;;18.65;13.90;;;;;;;13.24;nan;97257.78;10359949;28;20084;-75
2023/10/20 12:39:51;;;;;;;17.25;13.55;;;;;;;13.22;nan;97256.06;10328733;28;20069;-75
2023/10/20 12:44:52;;;;;;;17.52;13.88;;;;;;;13.26;nan;97256.88;10332953;28;20490;-74
2023/10/20 12:49:55;;;;;;;18.80;14.68;;;;;;;13.22;nan;97263.94;10358100;28;20171;-75
2023/10/20 12:54:56;;;;;;;42.28;28.95;;;;;;;13.23;nan;97270.06;10367666;28;20093;-74
2023/10/20 12:59:56;;;;;;;17.63;14.10;;;;;;;13.30;nan;97270.78;10372222;28;20046;-74
2023/10/20 13:04:57;;;;;;;16.52;13.07;;;;;;;13.26;nan;97277.88;10340995;28;20120;-74
2023/10/20 13:09:57;;;;;;;15.65;12.75;;;;;;;13.27;nan;97276.09;10358169;28;20050;-75
2023/10/20 13:14:57;;;;;;;19.38;13.50;;;;;;;13.29;nan;97275.19;10341248;28;20120;-74
2023/10/20 13:19:58;;;;;;;18.48;13.23;;;;;;;13.26;nan;97298.00;10356238;28;20121;-74
2023/10/20 13:24:59;;;;;;;33.13;16.73;;;;;;;13.25;nan;97331.31;10343373;28;20494;-74
2023/10/20 13:30:00;;;;;;;27.00;21.35;;;;;;;13.33;nan;97318.00;10334277;28;20563;-74
2023/10/20 13:35:01;;;;;;;8.50;4.82;;;;;;;13.38;nan;97339.78;10373668;28;20102;-74
2023/10/20 13:40:02;;;;;;;5.47;4.25;;;;;;;13.32;nan;97348.66;10357459;28;20038;-75
2023/10/20 13:45:07;;;;;;;4.93;2.67;;;;;;;13.32;nan;97351.28;10359053;28;20477;-75
2023/10/20 13:50:08;;;;;;;4.45;2.40;;;;;;;13.33;nan;97350.41;10357245;28;20494;-74
2023/10/20 13:55:09;;;;;;;11.25;2.97;;;;;;;13.31;nan;97348.69;10387485;28;20101;-74
2023/10/20 14:00:12;;;;;;;8.57;5.07;;;;;;;13.30;nan;97352.19;10355194;28;20108;-74
2023/10/20 14:05:18;;;;;;;5.57;2.95;;;;;;;13.26;nan;97345.28;10352588;28;20167;-74
2023/10/20 14:10:19;;;;;;;4.45;2.75;;;;;;;13.15;nan;97356.00;10356554;28;20045;-74
2023/10/20 14:15:20;;;;;;;6.82;3.05;;;;;;;13.06;nan;97367.53;10348278;28;20073;-74
2023/10/20 14:20:21;;;;;;;3.43;2.17;;;;;;;12.97;nan;97375.56;10353432;28;20049;-75
2023/10/20 14:25:21;;;;;;;5.72;2.97;;;;;;;12.94;nan;97387.00;10351839;28;20721;-74
2023/10/20 14:30:22;;;;;;;9.38;4.10;;;;;;;12.89;nan;97412.47;10344884;28;20113;-75
2023/10/20 14:35:22;;;;;;;5.97;2.83;;;;;;;12.82;nan;97442.31;10363420;28;20173;-74
2023/10/20 14:40:23;;;;;;;5.45;2.83;;;;;;;12.83;nan;97441.44;10369067;28;20455;-75
2023/10/20 14:45:23;;;;;;;6.32;3.03;;;;;;;12.81;nan;97458.97;10376106;28;20047;-74
2023/10/20 14:50:26;;;;;;;9.43;4.30;;;;;;;12.83;nan;97470.31;10349421;28;20052;-75
2023/10/20 14:55:27;;;;;;;7.78;4.22;;;;;;;12.81;nan;97479.94;10341531;28;20041;-75
2023/10/20 15:00:28;;;;;;;6.88;4.40;;;;;;;12.80;nan;97488.72;10362739;28;20077;-75
2023/10/20 15:05:29;;;;;;;5.63;3.53;;;;;;;12.68;nan;97503.75;10358145;28;20124;-75
2023/10/20 15:10:30;;;;;;;5.80;3.17;;;;;;;12.63;nan;97498.56;10358836;28;20046;-74
2023/10/20 15:15:34;;;;;;;6.70;4.32;;;;;;;12.59;nan;97496.88;10362127;28;20125;-74
2023/10/20 15:20:38;;;;;;;6.47;4.85;;;;;;;12.57;nan;97511.75;10348801;28;20043;-74
2023/10/20 15:25:40;;;;;;;10.10;5.53;;;;;;;12.58;nan;97512.66;10329914;28;20048;-74
2023/10/20 15:30:40;;;;;;;7.25;5.55;;;;;;;12.60;nan;97519.59;10352461;28;20125;-74
2023/10/20 15:35:41;;;;;;;9.38;6.30;;;;;;;12.56;nan;97506.56;10335970;28;20042;-75
2023/10/20 15:40:42;;;;;;;7.07;4.60;;;;;;;12.55;nan;97516.16;10343844;28;20040;-74
2023/10/20 15:45:52;;;;;;;7.80;4.35;;;;;;;12.53;nan;97517.09;10389252;28;20515;-74
2023/10/20 15:50:53;;;;;;;7.47;4.47;;;;;;;12.48;nan;97514.50;10359718;28;20038;-74
2023/10/20 15:55:54;;;;;;;9.00;6.55;;;;;;;12.39;nan;97519.88;10396771;28;20120;-74
2023/10/20 16:01:03;;;;;;;7.07;4.47;;;;;;;12.31;nan;97530.50;10360337;28;20090;-75
2023/10/20 16:06:08;;;;;;;8.82;4.82;;;;;;;12.30;nan;97537.47;10358468;28;20453;-74
2023/10/20 16:11:09;;;;;;;7.05;5.20;;;;;;;12.29;nan;97540.97;10355332;28;20050;-74
2023/10/20 16:16:10;;;;;;;7.30;5.32;;;;;;;12.29;nan;97554.09;10362638;28;20042;-74
2023/10/20 16:21:11;;;;;;;9.00;5.35;;;;;;;12.36;nan;97548.78;10361618;28;20426;-74
2023/10/20 16:26:11;;;;;;;9.40;4.68;;;;;;;12.35;nan;97561.03;10357826;28;20429;-74
2023/10/20 16:31:12;;;;;;;6.03;4.32;;;;;;;12.38;nan;97570.59;10368337;28;20038;-74
2023/10/20 16:36:13;;;;;;;6.88;5.53;;;;;;;12.32;nan;97575.03;10375527;28;20115;-74
2023/10/20 16:41:13;;;;;;;10.43;5.70;;;;;;;12.24;nan;97578.66;10360059;28;20053;-74
2023/10/20 16:46:14;;;;;;;12.40;11.10;;;;;;;12.18;nan;97583.06;10358945;28;20561;-75
2023/10/20 16:51:16;;;;;;;8.00;4.80;;;;;;;12.14;nan;97580.50;10367973;28;20049;-75
2023/10/20 16:56:19;;;;;;;9.30;6.40;;;;;;;12.04;nan;97582.38;10374349;28;20038;-75
2023/10/20 17:01:21;;;;;;;6.95;4.95;;;;;;;11.97;nan;97591.16;10354989;28;20042;-75
2023/10/20 17:06:22;;;;;;;31.88;17.92;;;;;;;11.85;nan;97598.25;10355709;28;20056;-74
2023/10/20 17:11:22;;;;;;;10.02;5.45;;;;;;;11.81;nan;97603.50;10358594;28;20402;-75
2023/10/20 17:16:23;;;;;;;11.05;9.82;;;;;;;11.64;nan;97608.94;10352043;28;20414;-75
2023/10/20 17:21:23;;;;;;;14.27;10.55;;;;;;;11.46;nan;97611.69;10370979;28;20640;-75
2023/10/20 17:26:24;;;;;;;7.65;5.85;;;;;;;11.42;nan;97606.50;10329212;28;20126;-75
2023/10/20 17:31:33;;;;;;;7.95;6.15;;;;;;;11.28;nan;97623.19;10354734;28;20129;-75
2023/10/20 17:36:36;;;;;;;8.77;5.55;;;;;;;11.29;nan;97632.75;10388588;28;20062;-74
2023/10/20 17:41:37;;;;;;;10.50;6.30;;;;;;;11.18;nan;97642.44;10355303;28;20034;-74
2023/10/20 17:46:37;;;;;;;9.23;6.63;;;;;;;11.06;nan;97653.00;10370845;28;20096;-75
2023/10/20 17:51:38;;;;;;;15.30;5.55;;;;;;;10.96;nan;97660.00;10359290;28;20045;-75
2023/10/20 17:56:38;;;;;;;11.05;6.93;;;;;;;10.90;nan;97670.50;10356066;28;20129;-74
2023/10/20 18:01:39;;;;;;;10.73;6.82;;;;;;;10.82;nan;97662.72;10353328;28;20046;-76
2023/10/20 18:06:39;;;;;;;11.18;6.28;;;;;;;10.92;nan;97668.75;10355785;28;20131;-74
2023/10/20 18:11:40;;;;;;;9.98;6.93;;;;;;;10.84;nan;97668.81;10355009;28;20486;-75
2023/10/20 18:16:41;;;;;;;11.13;6.53;;;;;;;10.87;nan;97674.88;10366435;28;20418;-74
2023/10/20 18:21:41;;;;;;;16.58;6.13;;;;;;;10.81;nan;97680.13;10379243;28;20126;-74
2023/10/20 18:26:42;;;;;;;13.95;7.15;;;;;;;10.74;nan;97683.66;10395991;28;20037;-74
2023/10/20 18:31:43;;;;;;;40.80;10.05;;;;;;;10.69;nan;97685.41;10363150;28;20041;-74
2023/10/20 18:36:43;;;;;;;11.52;6.28;;;;;;;10.52;nan;97695.94;10378662;28;20124;-74
2023/10/20 18:41:44;;;;;;;26.23;7.78;;;;;;;10.45;nan;97697.69;10371563;28;20130;-75
2023/10/20 18:46:44;;;;;;;62.10;11.77;;;;;;;10.48;nan;97705.53;10372097;28;20130;-75
2023/10/20 18:51:45;;;;;;;11.80;6.70;;;;;;;10.49;nan;97712.50;10343714;28;20536;-75
2023/10/20 18:56:45;;;;;;;12.38;6.18;;;;;;;10.51;nan;97713.38;10361987;28;20136;-74
2023/10/20 19:01:46;;;;;;;13.40;6.95;;;;;;;10.35;nan;97714.25;10361153;28;20065;-74
2023/10/20 19:06:46;;;;;;;9.50;6.05;;;;;;;10.27;nan;97715.13;10362048;28;20113;-74
2023/10/20 19:11:47;;;;;;;14.85;6.43;;;;;;;10.32;nan;97719.47;10373944;28;20041;-75
2023/10/20 19:16:48;;;;;;;20.08;8.55;;;;;;;10.14;nan;97742.16;10389016;28;20120;-76
2023/10/20 19:21:49;;;;;;;13.35;5.90;;;;;;;10.11;nan;97747.38;10388065;28;20041;-75
2023/10/20 19:26:50;;;;;;;228.37;28.17;;;;;;;10.08;nan;97750.00;10358524;28;20410;-75
2023/10/20 19:31:50;;;;;;;29.95;8.15;;;;;;;9.94;nan;97750.88;10357749;28;20137;-74
2023/10/20 19:36:51;;;;;;;19.88;6.68;;;;;;;9.85;nan;97753.47;10360876;28;20042;-75
2023/10/20 19:41:53;;;;;;;14.70;6.55;;;;;;;9.92;nan;97770.03;10352367;28;20145;-75
2023/10/20 19:46:54;;;;;;;14.85;6.55;;;;;;;9.85;nan;97776.97;10305235;28;20042;-74
2023/10/20 19:51:54;;;;;;;17.40;8.20;;;;;;;9.89;nan;97772.66;10350674;28;20100;-75
2023/10/20 19:56:55;;;;;;;14.88;6.78;;;;;;;9.90;nan;97777.84;10357556;28;20192;-75
2023/10/20 20:01:56;;;;;;;26.30;8.35;;;;;;;9.80;nan;97786.56;10360180;28;20058;-74
2023/10/20 20:06:56;;;;;;;20.40;7.00;;;;;;;9.63;nan;97787.41;10369050;28;20082;-76
2023/10/20 20:11:57;;;;;;;32.42;8.25;;;;;;;9.63;nan;97789.16;10374541;28;20048;-75
2023/10/20 20:16:58;;;;;;;24.45;7.15;;;;;;;9.57;nan;97797.81;10358171;28;20073;-75
2023/10/20 20:21:59;;;;;;;35.33;9.90;;;;;;;9.52;nan;97792.63;10362938;28;20486;-75
2023/10/20 20:27:00;;;;;;;15.02;8.32;;;;;;;9.47;nan;97794.34;10359795;28;20044;-75
2023/10/20 20:32:01;;;;;;;13.75;7.32;;;;;;;9.36;nan;97804.72;10362022;28;20542;-76
2023/10/20 20:37:02;;;;;;;16.65;6.60;;;;;;;9.35;nan;97816.03;10355973;28;20054;-76
2023/10/20 20:42:02;;;;;;;11.25;6.85;;;;;;;9.30;nan;97820.38;10353381;28;20069;-75
2023/10/20 20:47:03;;;;;;;124.18;14.35;;;;;;;9.18;nan;97826.44;10361433;28;20044;-75
2023/10/20 20:52:04;;;;;;;15.85;7.90;;;;;;;9.29;nan;97836.91;10355473;28;20124;-75
2023/10/20 20:57:04;;;;;;;67.82;13.07;;;;;;;9.18;nan;97841.19;10318273;28;20049;-75
2023/10/20 21:02:05;;;;;;;11.20;7.05;;;;;;;9.11;nan;97842.91;10360427;28;20042;-75
2023/10/20 21:07:06;;;;;;;25.13;8.73;;;;;;;9.11;nan;97842.91;10342282;28;20069;-75
2023/10/20 21:12:07;;;;;;;23.80;9.80;;;;;;;9.12;nan;97855.09;10357495;28;20128;-75
2023/10/20 21:17:07;;;;;;;16.23;8.50;;;;;;;9.11;nan;97849.00;10359255;28;20497;-74
2023/10/20 21:22:08;;;;;;;54.45;11.57;;;;;;;9.07;nan;97848.97;10357253;28;20129;-75
2023/10/20 21:27:08;;;;;;;26.77;8.05;;;;;;;9.02;nan;97854.16;10357391;28;20494;-75
2023/10/20 21:32:09;;;;;;;107.28;16.10;;;;;;;8.90;nan;97851.47;10358675;28;20129;-75
2023/10/20 21:37:09;;;;;;;25.00;9.13;;;;;;;8.72;nan;97866.16;10357994;28;20128;-75
2023/10/20 21:42:10;;;;;;;21.67;8.02;;;;;;;8.59;nan;97859.09;10387407;28;20119;-75
2023/10/20 21:47:12;;;;;;;34.80;11.50;;;;;;;8.57;nan;97864.31;10355011;28;20487;-75
2023/10/20 21:52:13;;;;;;;23.67;10.38;;;;;;;8.46;nan;97865.94;10341044;28;20034;-76
2023/10/20 21:57:13;;;;;;;16.38;9.40;;;;;;;8.32;nan;97860.59;10357195;28;20180;-76
2023/10/20 22:02:15;;;;;;;31.60;8.98;;;;;;;8.29;nan;97865.78;10358131;28;20069;-75
2023/10/20 22:07:15;;;;;;;8.68;4.95;;;;;;;8.21;nan;97874.41;10356380;28;20034;-75
2023/10/20 22:12:16;;;;;;;32.72;8.45;;;;;;;8.22;nan;97863.13;10357279;28;20428;-75
2023/10/20 22:17:16;;;;;;;117.25;13.80;;;;;;;8.20;nan;97869.19;10356929;28;20132;-77
2023/10/20 22:22:17;;;;;;;58.25;8.32;;;;;;;8.09;nan;97871.69;10359013;28;20949;-74
2023/10/20 22:27:18;;;;;;;18.85;6.22;;;;;;;7.96;nan;97868.09;10348828;28;20034;-74
2023/10/20 22:32:18;;;;;;;6.95;4.13;;;;;;;7.98;nan;97878.53;10343816;28;20053;-74
2023/10/20 22:37:19;;;;;;;186.88;28.63;;;;;;;7.97;nan;97887.19;10357462;28;20077;-74
2023/10/20 22:42:20;;;;;;;67.93;15.20;;;;;;;7.89;nan;97876.72;10368227;28;20042;-75
2023/10/20 22:47:21;;;;;;;163.63;19.48;;;;;;;7.90;nan;97881.06;10342568;28;20030;-74
2023/10/20 22:52:21;;;;;;;8.75;5.80;;;;;;;7.76;nan;97886.09;10353902;28;20038;-74
2023/10/20 22:57:22;;;;;;;8.38;4.53;;;;;;;7.66;nan;97894.66;10357777;28;20037;-75
2023/10/20 23:02:22;;;;;;;35.53;8.55;;;;;;;7.55;nan;97900.63;10361489;28;20041;-75
2023/10/20 23:07:23;;;;;;;17.40;6.43;;;;;;;7.49;nan;97897.94;10362478;28;20101;-74
2023/10/20 23:12:23;;;;;;;63.40;9.52;;;;;;;7.49;nan;97905.75;10361927;28;20050;-74
2023/10/20 23:17:24;;;;;;;18.70;9.02;;;;;;;7.43;nan;97908.28;10365259;28;20054;-74
2023/10/20 23:22:27;;;;;;;9.52;5.18;;;;;;;7.43;nan;97916.09;10362356;28;20069;-75
2023/10/20 23:27:28;;;;;;;12.00;6.60;;;;;;;7.32;nan;97922.03;10361372;28;20450;-74
2023/10/20 23:32:28;;;;;;;20.83;7.60;;;;;;;7.26;nan;97929.75;10363503;28;20173;-74
2023/10/20 23:37:29;;;;;;;14.10;7.65;;;;;;;7.24;nan;97934.06;10377988;28;20062;-74
2023/10/20 23:42:29;;;;;;;12.95;7.13;;;;;;;7.15;nan;97942.63;10361879;28;20058;-75
2023/10/20 23:47:29;;;;;;;127.68;20.40;;;;;;;7.14;nan;97938.25;10360940;28;20140;-75
2023/10/20 23:52:30;;;;;;;15.73;8.32;;;;;;;7.11;nan;97948.63;10377548;28;20069;-75
2023/10/20 23:57:30;;;;;;;16.75;8.40;;;;;;;7.23;nan;97958.31;10378459;28;20045;-74
